createdAt,value
2023-03-13T00:00:13.560Z,70.7143
2023-03-13T00:01:13.634Z,70.7143
2023-03-13T00:02:13.665Z,70.7143
2023-03-13T00:03:13.670Z,70.7143
2023-03-13T00:04:13.701Z,70.7143
2023-03-13T00:05:13.858Z,70.7143
2023-03-13T00:06:13.783Z,70.7143
2023-03-13T00:07:13.814Z,70.7857
2023-03-13T00:08:13.848Z,70.7857
2023-03-13T00:09:13.889Z,70.7857
2023-03-13T00:10:13.929Z,70.7857
2023-03-13T00:11:13.961Z,70.8571
2023-03-13T00:12:13.986Z,70.8571
2023-03-13T00:13:14.030Z,70.8571
2023-03-13T00:14:14.063Z,70.8571
2023-03-13T00:15:14.094Z,70.9286
2023-03-13T00:16:14.199Z,70.9286
2023-03-13T00:17:14.156Z,70.9286
2023-03-13T00:18:14.189Z,70.9286
2023-03-13T00:19:14.224Z,71
2023-03-13T00:20:14.252Z,71
2023-03-13T00:21:14.295Z,71
2023-03-13T00:22:14.333Z,71
2023-03-13T00:23:14.366Z,71.0714
2023-03-13T00:24:14.397Z,71.0714
2023-03-13T00:25:14.445Z,71.0714
2023-03-13T00:26:14.472Z,71.1429
2023-03-13T00:27:14.505Z,71.1429
2023-03-13T00:28:14.556Z,71.2143
2023-03-13T00:29:14.590Z,71.2143
2023-03-13T00:30:14.629Z,71.2143
2023-03-13T00:31:14.758Z,71.2857
2023-03-13T00:32:14.764Z,71.2857
2023-03-13T00:33:14.727Z,71.3571
2023-03-13T00:34:14.770Z,71.3571
2023-03-13T00:35:14.797Z,71.3571
2023-03-13T00:36:14.835Z,71.3571
2023-03-13T00:37:14.869Z,71.3571
2023-03-13T00:38:14.917Z,71.3571
2023-03-13T00:39:14.953Z,71.3571
2023-03-13T00:40:14.988Z,71.3571
2023-03-13T00:41:15.010Z,71.3571
2023-03-13T00:42:15.046Z,71.4286
2023-03-13T00:43:15.077Z,71.4286
2023-03-13T00:44:15.114Z,71.4286
2023-03-13T00:45:15.158Z,71.4286
2023-03-13T00:46:15.292Z,71.4286
2023-03-13T00:47:15.221Z,71.4286
2023-03-13T00:48:15.252Z,71.4286
2023-03-13T00:49:15.288Z,71.4286
2023-03-13T00:50:15.321Z,71.4286
2023-03-13T00:51:15.377Z,71.4286
2023-03-13T00:52:15.406Z,71.4286
2023-03-13T00:53:15.442Z,71.4286
2023-03-13T00:54:15.485Z,71.4286
2023-03-13T00:55:15.516Z,71.4286
2023-03-13T00:56:15.572Z,71.3571
2023-03-13T00:57:15.579Z,71.3571
2023-03-13T00:58:15.625Z,71.3571
2023-03-13T00:59:15.670Z,71.2857
2023-03-13T01:00:15.700Z,71.2857
2023-03-13T01:01:15.747Z,71.2857
2023-03-13T01:02:15.945Z,71.2143
2023-03-13T01:03:16.037Z,71.1429
2023-03-13T01:04:15.848Z,71.1429
2023-03-13T01:05:15.889Z,71.1429
2023-03-13T01:06:15.929Z,71.0714
2023-03-13T01:07:15.960Z,71.0714
2023-03-13T01:08:16.004Z,71.0714
2023-03-13T01:09:16.032Z,71.0714
2023-03-13T01:10:16.080Z,71
2023-03-13T01:11:16.103Z,70.9286
2023-03-13T01:12:16.134Z,70.9286
2023-03-13T01:13:16.173Z,70.8571
2023-03-13T01:14:16.206Z,70.7857
2023-03-13T01:15:16.261Z,70.7857
2023-03-13T01:16:16.385Z,70.7143
2023-03-13T01:17:16.317Z,70.7143
2023-03-13T01:18:16.352Z,70.6429
2023-03-13T01:19:16.399Z,70.5714
2023-03-13T01:20:16.457Z,70.5714
2023-03-13T01:21:16.460Z,70.5
2023-03-13T01:22:16.502Z,70.4286
2023-03-13T01:23:16.547Z,70.4286
2023-03-13T01:24:16.570Z,70.3571
2023-03-13T01:25:16.606Z,70.2857
2023-03-13T01:26:16.647Z,70.2857
2023-03-13T01:27:16.685Z,70.2143
2023-03-13T01:28:16.715Z,70.2143
2023-03-13T01:29:16.750Z,70.1429
2023-03-13T01:30:16.793Z,70.1429
2023-03-13T01:31:16.865Z,70.0714
2023-03-13T01:32:16.894Z,70
2023-03-13T01:33:16.908Z,70
2023-03-13T01:34:16.935Z,69.9286
2023-03-13T01:35:17.000Z,69.9286
2023-03-13T01:36:17.005Z,69.8571
2023-03-13T01:37:17.040Z,69.8571
2023-03-13T01:38:17.079Z,69.7857
2023-03-13T01:39:17.128Z,69.7857
2023-03-13T01:40:17.159Z,69.6429
2023-03-13T01:41:17.204Z,69.6429
2023-03-13T01:42:17.244Z,69.5714
2023-03-13T01:43:26.036Z,69.5714
2023-03-13T01:44:17.296Z,69.5
2023-03-13T01:45:17.330Z,69.5
2023-03-13T01:46:17.388Z,69.4286
2023-03-13T01:47:17.405Z,69.4286
2023-03-13T01:48:17.431Z,69.3571
2023-03-13T01:49:17.460Z,69.2857
2023-03-13T01:50:17.502Z,69.2143
2023-03-13T01:51:17.535Z,69.2143
2023-03-13T01:52:17.569Z,69.1429
2023-03-13T01:53:17.599Z,69.1429
2023-03-13T01:54:17.640Z,69.0714
2023-03-13T01:55:17.684Z,69
2023-03-13T01:56:17.710Z,68.9286
2023-03-13T01:57:17.748Z,68.9286
2023-03-13T01:58:17.781Z,68.8571
2023-03-13T01:59:17.821Z,68.7857
2023-03-13T02:00:17.863Z,68.7143
2023-03-13T02:01:17.945Z,68.6429
2023-03-13T02:02:17.933Z,68.5714
2023-03-13T02:03:17.967Z,68.5714
2023-03-13T02:04:18.005Z,68.5714
2023-03-13T02:05:18.042Z,68.5714
2023-03-13T02:06:18.079Z,68.5
2023-03-13T02:07:18.116Z,68.5
2023-03-13T02:08:18.152Z,68.5
2023-03-13T02:09:18.203Z,68.5
2023-03-13T02:10:18.232Z,68.4286
2023-03-13T02:11:18.267Z,68.5
2023-03-13T02:12:18.311Z,68.5
2023-03-13T02:13:18.352Z,68.4286
2023-03-13T02:14:19.070Z,68.4286
2023-03-13T02:15:18.453Z,68.4286
2023-03-13T02:16:18.502Z,68.5
2023-03-13T02:17:18.502Z,68.4286
2023-03-13T02:18:18.534Z,68.5
2023-03-13T02:19:18.569Z,68.5
2023-03-13T02:20:18.607Z,68.5
2023-03-13T02:21:18.637Z,68.5
2023-03-13T02:22:18.674Z,68.4286
2023-03-13T02:23:20.276Z,68.5
2023-03-13T02:24:18.760Z,68.5
2023-03-13T02:25:18.782Z,68.5
2023-03-13T02:26:18.817Z,68.5
2023-03-13T02:27:18.859Z,68.5
2023-03-13T02:28:18.904Z,68.5
2023-03-13T02:29:18.937Z,68.5
2023-03-13T02:30:18.973Z,68.5
2023-03-13T02:31:19.085Z,68.5
2023-03-13T02:32:19.088Z,68.5
2023-03-13T02:33:19.080Z,68.5
2023-03-13T02:34:19.111Z,68.5
2023-03-13T02:35:19.217Z,68.5714
2023-03-13T02:36:19.182Z,68.5714
2023-03-13T02:37:19.217Z,68.5
2023-03-13T02:38:19.262Z,68.5
2023-03-13T02:39:19.292Z,68.5
2023-03-13T02:40:19.325Z,68.5
2023-03-13T02:41:19.353Z,68.5
2023-03-13T02:42:19.388Z,68.5
2023-03-13T02:43:19.436Z,68.5
2023-03-13T02:44:19.469Z,68.5
2023-03-13T02:45:19.511Z,68.5
2023-03-13T02:46:19.567Z,68.5
2023-03-13T02:47:19.573Z,68.5
2023-03-13T02:48:19.613Z,68.4286
2023-03-13T02:49:19.648Z,68.4286
2023-03-13T02:50:19.687Z,68.4286
2023-03-13T02:51:19.728Z,68.4286
2023-03-13T02:52:19.768Z,68.3571
2023-03-13T02:53:19.795Z,68.3571
2023-03-13T02:54:19.829Z,68.3571
2023-03-13T02:55:19.869Z,68.3571
2023-03-13T02:56:19.901Z,68.3571
2023-03-13T02:57:19.936Z,68.3571
2023-03-13T02:58:19.969Z,68.2857
2023-03-13T02:59:20.004Z,68.2857
2023-03-13T03:00:20.036Z,68.2857
2023-03-13T03:01:20.167Z,68.2857
2023-03-13T03:02:20.117Z,68.2143
2023-03-13T03:03:20.153Z,68.1429
2023-03-13T03:04:20.265Z,68.1429
2023-03-13T03:05:20.241Z,68.0714
2023-03-13T03:06:20.257Z,68.0714
2023-03-13T03:07:20.293Z,68.0714
2023-03-13T03:08:20.325Z,68.0714
2023-03-13T03:09:20.353Z,68
2023-03-13T03:10:20.387Z,68
2023-03-13T03:11:20.433Z,68
2023-03-13T03:12:20.449Z,67.9286
2023-03-13T03:13:20.486Z,68
2023-03-13T03:14:20.528Z,68
2023-03-13T03:15:20.568Z,68
2023-03-13T03:16:20.735Z,68
2023-03-13T03:17:20.647Z,68
2023-03-13T03:18:20.685Z,68
2023-03-13T03:19:20.713Z,68
2023-03-13T03:20:20.752Z,68
2023-03-13T03:21:20.780Z,68.0714
2023-03-13T03:22:20.816Z,68.0714
2023-03-13T03:23:20.858Z,68.0714
2023-03-13T03:24:20.898Z,68.0714
2023-03-13T03:25:20.918Z,68.0714
2023-03-13T03:26:20.955Z,68.1429
2023-03-13T03:27:20.981Z,68.1429
2023-03-13T03:28:21.026Z,68.1429
2023-03-13T03:29:21.061Z,68.1429
2023-03-13T03:30:21.103Z,68.1429
2023-03-13T03:31:21.158Z,68.1429
2023-03-13T03:32:21.224Z,68.1429
2023-03-13T03:33:21.201Z,68.1429
2023-03-13T03:34:21.230Z,68.2143
2023-03-13T03:35:21.263Z,68.1429
2023-03-13T03:36:21.302Z,68.1429
2023-03-13T03:37:21.337Z,68.1429
2023-03-13T03:38:21.372Z,68.1429
2023-03-13T03:39:21.402Z,68.1429
2023-03-13T03:40:21.454Z,68.1429
2023-03-13T03:41:21.474Z,68.1429
2023-03-13T03:42:21.515Z,68.1429
2023-03-13T03:43:21.536Z,68.1429
2023-03-13T03:44:21.576Z,68.1429
2023-03-13T03:45:21.615Z,68.1429
2023-03-13T03:46:21.768Z,68.0714
2023-03-13T03:47:21.756Z,68.1429
2023-03-13T03:48:21.722Z,68.0714
2023-03-13T03:49:21.753Z,68.0714
2023-03-13T03:50:21.792Z,68.0714
2023-03-13T03:51:21.826Z,68.0714
2023-03-13T03:52:21.874Z,68
2023-03-13T03:53:21.898Z,68
2023-03-13T03:54:21.936Z,68
2023-03-13T03:55:21.975Z,68
2023-03-13T03:56:22.019Z,68
2023-03-13T03:57:22.042Z,68
2023-03-13T03:58:22.080Z,68
2023-03-13T03:59:22.127Z,68.0714
2023-03-13T04:00:22.154Z,68
2023-03-13T04:01:22.209Z,67.9286
2023-03-13T04:02:22.318Z,67.9286
2023-03-13T04:03:22.314Z,67.9286
2023-03-13T04:04:22.306Z,67.9286
2023-03-13T04:05:22.338Z,67.8571
2023-03-13T04:06:22.389Z,67.8571
2023-03-13T04:07:22.422Z,67.8571
2023-03-13T04:08:22.456Z,67.8571
2023-03-13T04:09:22.480Z,67.9286
2023-03-13T04:10:22.523Z,67.9286
2023-03-13T04:11:22.552Z,67.8571
2023-03-13T04:12:22.609Z,67.8571
2023-03-13T04:13:22.627Z,67.9286
2023-03-13T04:14:22.661Z,67.9286
2023-03-13T04:15:22.701Z,68
2023-03-13T04:16:22.812Z,68
2023-03-13T04:17:22.782Z,68
2023-03-13T04:18:22.822Z,68.0714
2023-03-13T04:19:22.869Z,68.1429
2023-03-13T04:20:22.904Z,68.1429
2023-03-13T04:21:22.932Z,68.1429
2023-03-13T04:22:22.964Z,68.1429
2023-03-13T04:23:22.993Z,68.2143
2023-03-13T04:24:23.016Z,68.2143
2023-03-13T04:25:23.053Z,68.2143
2023-03-13T04:26:23.091Z,68.2857
2023-03-13T04:27:23.125Z,68.2857
2023-03-13T04:28:23.158Z,68.2857
2023-03-13T04:29:23.199Z,68.3571
2023-03-13T04:30:23.235Z,68.4286
2023-03-13T04:31:23.274Z,68.4286
2023-03-13T04:32:23.355Z,68.4286
2023-03-13T04:33:23.334Z,68.4286
2023-03-13T04:34:23.365Z,68.4286
2023-03-13T04:35:23.548Z,68.5
2023-03-13T04:36:23.528Z,68.5
2023-03-13T04:37:23.476Z,68.5714
2023-03-13T04:38:23.517Z,68.5714
2023-03-13T04:39:23.545Z,68.5714
2023-03-13T04:40:23.580Z,68.6429
2023-03-13T04:41:23.629Z,68.6429
2023-03-13T04:42:23.659Z,68.6429
2023-03-13T04:43:23.708Z,68.7143
2023-03-13T04:44:23.735Z,68.7143
2023-03-13T04:45:23.772Z,68.7857
2023-03-13T04:46:23.885Z,68.7857
2023-03-13T04:47:23.846Z,68.8571
2023-03-13T04:48:23.873Z,69
2023-03-13T04:49:23.915Z,69
2023-03-13T04:50:23.951Z,69.0714
2023-03-13T04:51:23.976Z,69.1429
2023-03-13T04:52:24.002Z,69.2143
2023-03-13T04:53:24.040Z,69.3571
2023-03-13T04:54:24.085Z,69.4286
2023-03-13T04:55:24.140Z,69.5
2023-03-13T04:56:41.089Z,69.5714
2023-03-13T04:57:24.195Z,69.6429
2023-03-13T04:58:24.243Z,69.7143
2023-03-13T04:59:24.282Z,69.7143
2023-03-13T05:00:24.317Z,69.7857
2023-03-13T05:01:24.412Z,69.7857
2023-03-13T05:02:24.393Z,69.8571
2023-03-13T05:03:24.426Z,69.9286
2023-03-13T05:04:24.460Z,70
2023-03-13T05:05:24.560Z,70.0714
2023-03-13T05:06:24.532Z,70.1429
2023-03-13T05:07:24.562Z,70.2143
2023-03-13T05:08:24.597Z,70.2857
2023-03-13T05:09:24.629Z,70.3571
2023-03-13T05:10:24.665Z,70.4286
2023-03-13T05:11:24.704Z,70.5714
2023-03-13T05:12:24.745Z,70.6429
2023-03-13T05:13:24.775Z,70.7143
2023-03-13T05:14:24.810Z,70.7857
2023-03-13T05:15:24.847Z,70.7857
2023-03-13T05:16:24.928Z,70.8571
2023-03-13T05:17:24.922Z,70.9286
2023-03-13T05:18:24.977Z,70.9286
2023-03-13T05:19:25.003Z,71
2023-03-13T05:20:25.035Z,71.0714
2023-03-13T05:21:25.065Z,71.0714
2023-03-13T05:22:25.097Z,71.1429
2023-03-13T05:23:25.137Z,71.1429
2023-03-13T05:24:25.170Z,71.1429
2023-03-13T05:25:25.204Z,71.2143
2023-03-13T05:26:25.236Z,71.2857
2023-03-13T05:27:25.281Z,71.2857
2023-03-13T05:28:25.301Z,71.3571
2023-03-13T05:29:25.339Z,71.4286
2023-03-13T05:30:25.373Z,71.4286
2023-03-13T05:31:25.437Z,71.5
2023-03-13T05:32:25.520Z,71.5714
2023-03-13T05:33:25.488Z,71.6429
2023-03-13T05:34:25.532Z,71.7143
2023-03-13T05:35:25.603Z,71.7143
2023-03-13T05:36:25.592Z,71.7857
2023-03-13T05:37:25.622Z,71.8571
2023-03-13T05:38:25.663Z,71.8571
2023-03-13T05:39:25.694Z,71.8571
2023-03-13T05:40:25.762Z,71.9286
2023-03-13T05:41:25.773Z,71.9286
2023-03-13T05:42:25.935Z,72
2023-03-13T05:43:25.854Z,71.9286
2023-03-13T05:44:25.893Z,71.9286
2023-03-13T05:45:25.922Z,71.9286
2023-03-13T05:46:26.030Z,71.9286
2023-03-13T05:47:25.987Z,72
2023-03-13T05:48:26.031Z,71.9286
2023-03-13T05:49:26.056Z,72
2023-03-13T05:50:26.089Z,72
2023-03-13T05:51:26.130Z,72.0714
2023-03-13T05:52:26.176Z,72.0714
2023-03-13T05:53:26.213Z,72.0714
2023-03-13T05:54:26.250Z,72.1429
2023-03-13T05:55:26.274Z,72.1429
2023-03-13T05:56:26.309Z,72.2143
2023-03-13T05:57:26.346Z,72.1429
2023-03-13T05:58:26.380Z,72.1429
2023-03-13T05:59:26.404Z,72.1429
2023-03-13T06:00:26.439Z,72.1429
2023-03-13T06:01:26.488Z,72.1429
2023-03-13T06:02:26.525Z,72.1429
2023-03-13T06:03:26.609Z,72.1429
2023-03-13T06:04:26.762Z,72.0714
2023-03-13T06:05:26.635Z,72.0714
2023-03-13T06:06:26.672Z,72.0714
2023-03-13T06:07:26.706Z,72.1429
2023-03-13T06:08:26.735Z,72.1429
2023-03-13T06:09:26.784Z,72.1429
2023-03-13T06:10:26.813Z,72.1429
2023-03-13T06:11:26.848Z,72.2143
2023-03-13T06:12:26.870Z,72.2143
2023-03-13T06:13:26.905Z,72.2143
2023-03-13T06:14:26.950Z,72.2143
2023-03-13T06:15:26.989Z,72.2857
2023-03-13T06:16:27.129Z,72.2857
2023-03-13T06:17:27.060Z,72.2857
2023-03-13T06:18:27.105Z,72.2857
2023-03-13T06:19:27.135Z,72.2857
2023-03-13T06:20:27.156Z,72.2857
2023-03-13T06:21:27.197Z,72.2857
2023-03-13T06:22:27.242Z,72.2857
2023-03-13T06:23:27.274Z,72.2857
2023-03-13T06:24:27.328Z,72.2857
2023-03-13T06:25:27.332Z,72.2857
2023-03-13T06:26:27.376Z,72.3571
2023-03-13T06:27:27.407Z,72.3571
2023-03-13T06:28:27.448Z,72.4286
2023-03-13T06:29:27.488Z,72.4286
2023-03-13T06:30:27.523Z,72.5
2023-03-13T06:31:27.655Z,72.5
2023-03-13T06:32:27.750Z,72.5
2023-03-13T06:33:27.747Z,72.5
2023-03-13T06:34:27.658Z,72.5
2023-03-13T06:35:27.701Z,72.5
2023-03-13T06:36:27.783Z,72.5
2023-03-13T06:37:27.794Z,72.5714
2023-03-13T06:38:27.795Z,72.5714
2023-03-13T06:39:27.824Z,72.5714
2023-03-13T06:40:27.866Z,72.5714
2023-03-13T06:41:27.921Z,72.5714
2023-03-13T06:42:27.926Z,72.6429
2023-03-13T06:43:27.988Z,72.6429
2023-03-13T06:44:28.015Z,72.6429
2023-03-13T06:45:28.050Z,72.6429
2023-03-13T06:46:28.118Z,72.6429
2023-03-13T06:47:28.122Z,72.6429
2023-03-13T06:48:28.158Z,72.6429
2023-03-13T06:49:28.197Z,72.6429
2023-03-13T06:50:28.242Z,72.6429
2023-03-13T06:51:28.272Z,72.6429
2023-03-13T06:52:41.214Z,72.5714
2023-03-13T06:53:28.359Z,72.6429
2023-03-13T06:54:28.392Z,72.6429
2023-03-13T06:55:28.414Z,72.6429
2023-03-13T06:56:28.457Z,72.6429
2023-03-13T06:57:28.492Z,72.6429
2023-03-13T06:58:32.509Z,72.5714
2023-03-13T06:59:28.553Z,72.5714
2023-03-13T07:00:28.767Z,72.5714
2023-03-13T07:01:28.693Z,72.5
2023-03-13T07:02:28.684Z,72.5
2023-03-13T07:03:28.749Z,72.5
2023-03-13T07:04:28.743Z,72.5
2023-03-13T07:05:28.780Z,72.5714
2023-03-13T07:06:28.819Z,72.5
2023-03-13T07:07:32.108Z,72.5
2023-03-13T07:08:28.911Z,72.5
2023-03-13T07:09:28.936Z,72.5
2023-03-13T07:10:28.989Z,72.5714
2023-03-13T07:11:29.000Z,72.6429
2023-03-13T07:12:29.047Z,72.6429
2023-03-13T07:13:29.085Z,72.7143
2023-03-13T07:14:29.109Z,72.7143
2023-03-13T07:15:29.139Z,72.7143
2023-03-13T07:16:29.200Z,72.7143
2023-03-13T07:17:29.246Z,72.7143
2023-03-13T07:18:29.255Z,72.7857
2023-03-13T07:19:29.293Z,72.7143
2023-03-13T07:20:29.454Z,72.7857
2023-03-13T07:21:29.343Z,72.7857
2023-03-13T07:22:29.415Z,72.8571
2023-03-13T07:23:29.424Z,73
2023-03-13T07:24:29.501Z,73.1429
2023-03-13T07:25:29.503Z,73.2143
2023-03-13T07:26:29.591Z,73.2857
2023-03-13T07:27:29.560Z,73.3571
2023-03-13T07:28:29.603Z,73.4286
2023-03-13T07:29:29.642Z,73.5714
2023-03-13T07:30:29.681Z,73.5714
2023-03-13T07:31:29.740Z,73.5714
2023-03-13T07:32:29.795Z,73.6429
2023-03-13T07:33:29.777Z,73.5714
2023-03-13T07:34:29.815Z,73.5
2023-03-13T07:35:29.849Z,73.4286
2023-03-13T07:36:30.001Z,73.2857
2023-03-13T07:37:29.928Z,73.1429
2023-03-13T07:38:29.961Z,73.0714
2023-03-13T07:39:29.999Z,73.0714
2023-03-13T07:40:30.024Z,73
2023-03-13T07:41:30.056Z,73
2023-03-13T07:42:30.087Z,72.9286
2023-03-13T07:43:30.130Z,72.9286
2023-03-13T07:44:30.156Z,72.9286
2023-03-13T07:45:30.224Z,72.8571
2023-03-13T07:46:30.233Z,72.9286
2023-03-13T07:47:30.272Z,72.9286
2023-03-13T07:48:30.309Z,72.9286
2023-03-13T07:49:30.369Z,72.9286
2023-03-13T07:50:30.423Z,72.8571
2023-03-13T07:51:42.402Z,72.7857
2023-03-13T07:52:30.431Z,72.7857
2023-03-13T07:53:30.535Z,72.7857
2023-03-13T07:54:30.585Z,72.7857
2023-03-13T07:55:30.549Z,72.7143
2023-03-13T07:56:30.588Z,72.7143
2023-03-13T07:57:30.602Z,72.6429
2023-03-13T07:58:30.644Z,72.7143
2023-03-13T07:59:30.676Z,72.7143
2023-03-13T08:00:30.720Z,72.7857
2023-03-13T08:01:31.347Z,72.7857
2023-03-13T08:02:30.821Z,72.8571
2023-03-13T08:03:30.849Z,72.9286
2023-03-13T08:04:30.857Z,73.0714
2023-03-13T08:05:30.882Z,73.2143
2023-03-13T08:06:32.597Z,73.2143
2023-03-13T08:07:30.944Z,73.2857
2023-03-13T08:08:30.981Z,73.3571
2023-03-13T08:09:31.024Z,73.4286
2023-03-13T08:10:31.065Z,73.5
2023-03-13T08:11:31.092Z,73.5
2023-03-13T08:12:31.124Z,73.5714
2023-03-13T08:13:31.150Z,73.7143
2023-03-13T08:14:31.181Z,73.7857
2023-03-13T08:15:31.219Z,73.7857
2023-03-13T08:16:31.347Z,73.8571
2023-03-13T08:17:31.287Z,73.9286
2023-03-13T08:18:31.320Z,74
2023-03-13T08:19:31.348Z,74.0714
2023-03-13T08:20:31.384Z,74.2143
2023-03-13T08:21:31.420Z,74.2857
2023-03-13T08:22:31.458Z,74.4286
2023-03-13T08:23:31.486Z,74.5
2023-03-13T08:24:31.535Z,74.5714
2023-03-13T08:25:31.565Z,74.5714
2023-03-13T08:26:31.597Z,74.6429
2023-03-13T08:27:31.633Z,74.7143
2023-03-13T08:28:31.702Z,74.8571
2023-03-13T08:29:31.705Z,75
2023-03-13T08:30:31.762Z,75.0714
2023-03-13T08:31:31.776Z,75.2143
2023-03-13T08:32:31.863Z,75.2857
2023-03-13T08:33:31.838Z,75.2857
2023-03-13T08:34:31.888Z,75.2857
2023-03-13T08:35:32.001Z,75.2857
2023-03-13T08:36:31.950Z,75.2143
2023-03-13T08:37:31.989Z,75.2143
2023-03-13T08:38:32.019Z,75.0714
2023-03-13T08:39:32.073Z,75
2023-03-13T08:40:32.090Z,74.9286
2023-03-13T08:41:32.142Z,74.7857
2023-03-13T08:42:32.157Z,74.7143
2023-03-13T08:43:32.208Z,74.5714
2023-03-13T08:44:32.242Z,74.5714
2023-03-13T08:45:32.282Z,74.5
2023-03-13T08:46:32.378Z,74.3571
2023-03-13T08:47:32.364Z,74.2143
2023-03-13T08:48:32.396Z,74.0714
2023-03-13T08:49:32.425Z,73.9286
2023-03-13T08:50:32.459Z,73.7857
2023-03-13T08:51:32.523Z,73.6429
2023-03-13T08:52:32.537Z,73.5714
2023-03-13T08:53:32.577Z,73.4286
2023-03-13T08:54:32.619Z,73.3571
2023-03-13T08:55:32.647Z,73.3571
2023-03-13T08:56:32.687Z,73.3571
2023-03-13T08:57:32.711Z,73.3571
2023-03-13T08:58:32.757Z,73.2143
2023-03-13T08:59:32.814Z,73.1429
2023-03-13T09:00:32.848Z,73.1429
2023-03-13T09:01:32.881Z,73.0714
2023-03-13T09:02:33.033Z,73
2023-03-13T09:03:33.009Z,72.9286
2023-03-13T09:04:32.970Z,72.8571
2023-03-13T09:05:38.577Z,72.7857
2023-03-13T09:06:33.050Z,72.6429
2023-03-13T09:07:33.082Z,72.6429
2023-03-13T09:08:33.136Z,72.5714
2023-03-13T09:09:33.165Z,72.5714
2023-03-13T09:10:33.200Z,72.5
2023-03-13T09:11:33.222Z,72.4286
2023-03-13T09:12:33.251Z,72.3571
2023-03-13T09:13:33.296Z,72.2143
2023-03-13T09:14:35.746Z,72.1429
2023-03-13T09:15:33.397Z,72.1429
2023-03-13T09:16:33.400Z,72.1429
2023-03-13T09:17:33.429Z,72.1429
2023-03-13T09:18:33.492Z,72.1429
2023-03-13T09:19:33.511Z,72.2143
2023-03-13T09:20:33.532Z,72.2143
2023-03-13T09:21:33.608Z,72.2143
2023-03-13T09:22:33.631Z,72.1429
2023-03-13T09:23:33.659Z,72.1429
2023-03-13T09:24:33.683Z,72.0714
2023-03-13T09:25:33.724Z,72.0714
2023-03-13T09:26:33.753Z,72.0714
2023-03-13T09:27:33.791Z,72.0714
2023-03-13T09:28:33.824Z,72.1429
2023-03-13T09:29:33.869Z,72.0714
2023-03-13T09:30:33.902Z,72.0714
2023-03-13T09:31:33.996Z,72.1429
2023-03-13T09:32:34.034Z,72.2857
2023-03-13T09:33:34.047Z,72.3571
2023-03-13T09:34:34.051Z,72.4286
2023-03-13T09:35:34.088Z,72.5
2023-03-13T09:36:34.125Z,72.5
2023-03-13T09:37:34.238Z,72.5
2023-03-13T09:38:34.196Z,72.4286
2023-03-13T09:39:34.243Z,72.4286
2023-03-13T09:40:34.261Z,72.4286
2023-03-13T09:41:34.338Z,72.3571
2023-03-13T09:42:34.354Z,72.3571
2023-03-13T09:43:34.391Z,72.3571
2023-03-13T09:44:34.423Z,72.2857
2023-03-13T09:45:34.508Z,72.2143
2023-03-13T09:46:34.757Z,72.2143
2023-03-13T09:47:34.548Z,72.1429
2023-03-13T09:48:34.573Z,72.0714
2023-03-13T09:49:34.609Z,72
2023-03-13T09:50:34.641Z,72.0714
2023-03-13T09:51:34.732Z,72
2023-03-13T09:52:34.714Z,71.8571
2023-03-13T09:53:34.752Z,71.7857
2023-03-13T09:54:34.794Z,71.8571
2023-03-13T09:55:34.814Z,71.8571
2023-03-13T09:56:34.854Z,71.7857
2023-03-13T09:57:34.883Z,71.8571
2023-03-13T09:58:34.915Z,71.8571
2023-03-13T09:59:34.950Z,71.9286
2023-03-13T10:00:34.997Z,72
2023-03-13T10:01:35.100Z,72.1429
2023-03-13T10:02:35.058Z,72.2143
2023-03-13T10:03:35.133Z,72.3571
2023-03-13T10:04:35.181Z,72.5
2023-03-13T10:05:35.218Z,72.5
2023-03-13T10:06:35.196Z,72.5
2023-03-13T10:07:35.236Z,72.5
2023-03-13T10:08:35.265Z,72.5714
2023-03-13T10:09:35.290Z,72.6429
2023-03-13T10:10:35.329Z,72.7143
2023-03-13T10:11:35.366Z,72.7143
2023-03-13T10:12:35.403Z,72.8571
2023-03-13T10:13:35.443Z,72.8571
2023-03-13T10:14:35.491Z,72.7857
2023-03-13T10:15:35.518Z,72.6429
2023-03-13T10:16:35.608Z,72.5714
2023-03-13T10:17:35.584Z,72.5
2023-03-13T10:18:35.625Z,72.3571
2023-03-13T10:19:35.661Z,72.2857
2023-03-13T10:20:35.689Z,72.2857
2023-03-13T10:21:35.715Z,72.2143
2023-03-13T10:22:35.757Z,72.2143
2023-03-13T10:23:35.801Z,72.2143
2023-03-13T10:24:35.819Z,72.1429
2023-03-13T10:25:35.854Z,72
2023-03-13T10:26:35.884Z,71.8571
2023-03-13T10:27:35.916Z,71.7857
2023-03-13T10:28:35.952Z,71.7143
2023-03-13T10:29:35.972Z,71.6429
2023-03-13T10:30:36.012Z,71.6429
2023-03-13T10:31:36.055Z,71.6429
2023-03-13T10:32:36.116Z,71.6429
2023-03-13T10:33:36.123Z,71.5714
2023-03-13T10:34:36.145Z,71.5
2023-03-13T10:35:36.223Z,71.4286
2023-03-13T10:36:36.226Z,71.4286
2023-03-13T10:37:36.252Z,71.4286
2023-03-13T10:38:36.294Z,71.2857
2023-03-13T10:39:36.318Z,71.2857
2023-03-13T10:40:36.357Z,71.3571
2023-03-13T10:41:36.404Z,71.1429
2023-03-13T10:42:36.408Z,71.0714
2023-03-13T10:43:36.461Z,70.8571
2023-03-13T10:44:36.484Z,70.7857
2023-03-13T10:45:36.531Z,70.6429
2023-03-13T10:46:36.630Z,70.5714
2023-03-13T10:47:36.589Z,70.5714
2023-03-13T10:48:36.637Z,70.5714
2023-03-13T10:49:36.663Z,70.4286
2023-03-13T10:50:36.720Z,70.2857
2023-03-13T10:51:36.753Z,70.3571
2023-03-13T10:52:36.779Z,70.2143
2023-03-13T10:53:36.798Z,70.0714
2023-03-13T10:54:36.832Z,69.8571
2023-03-13T10:55:36.876Z,69.5714
2023-03-13T10:56:36.924Z,69.4286
2023-03-13T10:57:36.978Z,69.2143
2023-03-13T10:58:36.991Z,69
2023-03-13T10:59:37.018Z,68.7857
2023-03-13T11:00:37.064Z,68.6429
2023-03-13T11:01:37.087Z,68.5
2023-03-13T11:02:37.263Z,68.2857
2023-03-13T11:03:37.314Z,68.2857
2023-03-13T11:04:37.203Z,68.4286
2023-03-13T11:05:37.233Z,68.5714
2023-03-13T11:06:37.271Z,68.7143
2023-03-13T11:07:37.311Z,68.7857
2023-03-13T11:08:37.424Z,68.8571
2023-03-13T11:09:37.382Z,69
2023-03-13T11:10:37.427Z,68.7143
2023-03-13T11:11:37.454Z,68.7857
2023-03-13T11:12:37.482Z,68.8571
2023-03-13T11:13:38.188Z,68.6429
2023-03-13T11:14:37.574Z,68.4286
2023-03-13T11:15:37.599Z,68.1429
2023-03-13T11:16:37.728Z,67.8571
2023-03-13T11:17:37.672Z,67.7857
2023-03-13T11:18:37.712Z,67.5
2023-03-13T11:19:37.741Z,67.5
2023-03-13T11:20:37.780Z,67.4286
2023-03-13T11:21:37.814Z,67.3571
2023-03-13T11:22:37.860Z,67.4286
2023-03-13T11:23:37.882Z,67.3571
2023-03-13T11:24:37.932Z,67.1429
2023-03-13T11:25:37.971Z,66.8571
2023-03-13T11:26:37.985Z,66.6429
2023-03-13T11:27:38.133Z,66.5714
2023-03-13T11:28:38.066Z,66.5714
2023-03-13T11:29:38.224Z,66.4286
2023-03-13T11:30:38.137Z,66.2857
2023-03-13T11:31:38.269Z,66.2857
2023-03-13T11:32:38.243Z,66.2143
2023-03-13T11:33:38.245Z,66.2143
2023-03-13T11:34:38.275Z,66.1429
2023-03-13T11:35:38.356Z,66
2023-03-13T11:36:38.354Z,65.9286
2023-03-13T11:37:38.393Z,65.6429
2023-03-13T11:38:38.425Z,65.5714
2023-03-13T11:39:38.461Z,65.5
2023-03-13T11:40:38.500Z,65.1429
2023-03-13T11:41:38.648Z,64.7143
2023-03-13T11:42:38.576Z,64.7143
2023-03-13T11:43:40.757Z,64.7857
2023-03-13T11:44:38.645Z,64.7857
2023-03-13T11:45:38.704Z,64.8571
2023-03-13T11:46:38.806Z,64.7143
2023-03-13T11:47:38.765Z,64.8571
2023-03-13T11:48:38.792Z,64.8571
2023-03-13T11:49:40.445Z,64.8571
2023-03-13T11:50:38.851Z,64.7143
2023-03-13T11:51:38.932Z,64.7143
2023-03-13T11:52:38.932Z,64.7143
2023-03-13T11:53:38.957Z,64.7143
2023-03-13T11:54:39.003Z,64.7143
2023-03-13T11:55:39.039Z,64.6429
2023-03-13T11:56:39.057Z,64.5714
2023-03-13T11:57:39.126Z,64.6429
2023-03-13T11:58:39.131Z,64.7143
2023-03-13T11:59:39.166Z,64.5
2023-03-13T12:00:39.257Z,64.5
2023-03-13T12:01:39.236Z,64.5714
2023-03-13T12:02:39.308Z,64.5714
2023-03-13T12:03:39.367Z,64.5
2023-03-13T12:04:39.401Z,64.5
2023-03-13T12:05:39.361Z,64.3571
2023-03-13T12:06:39.396Z,64.3571
2023-03-13T12:07:39.426Z,64.3571
2023-03-13T12:08:39.477Z,64.2143
2023-03-13T12:09:39.510Z,63.9286
2023-03-13T12:10:39.546Z,63.7143
2023-03-13T12:11:39.584Z,63.7857
2023-03-13T12:12:39.615Z,63.7857
2023-03-13T12:13:39.673Z,63.7857
2023-03-13T12:14:39.690Z,63.6429
2023-03-13T12:15:39.729Z,63.5714
2023-03-13T12:16:39.844Z,63.4286
2023-03-13T12:17:39.861Z,63.5
2023-03-13T12:18:39.841Z,63.4286
2023-03-13T12:19:39.874Z,63.4286
2023-03-13T12:20:39.910Z,63.1429